Time;durP1;ratioP1;P1;durP2;ratioP2;P2;SDS_P1;SDS_P2;PMS_P1;PMS_P2;Temp;Humidity;BMP_temperature;BMP_pressure;BME280_temperature;BME280_humidity;BME280_pressure;Samples;Min_cycle;Max_cycle;Signal;HPM_P1;HPM_P2
2021/01/25 00:01:21;;;;;;;1.20;1.08;;;12.30;74.80;;;;;;5084417;28;20025;-44
2021/01/25 00:03:48;;;;;;;1.55;0.95;;;12.30;75.70;;;;;;5084597;28;20039;-42
2021/01/25 00:06:14;;;;;;;1.10;1.00;;;12.30;74.80;;;;;;5084650;28;20016;-41
2021/01/25 00:08:40;;;;;;;1.33;1.20;;;12.30;74.70;;;;;;5083154;28;20032;-42
2021/01/25 00:11:06;;;;;;;1.33;1.00;;;12.30;74.80;;;;;;5084622;28;20025;-42
2021/01/25 00:13:32;;;;;;;1.05;0.98;;;12.30;75.00;;;;;;5084345;28;20044;-41
2021/01/25 00:15:59;;;;;;;1.13;1.02;;;12.30;74.60;;;;;;5084300;28;20048;-42
2021/01/25 00:18:25;;;;;;;0.98;0.93;;;12.30;74.20;;;;;;5084128;28;20036;-42
2021/01/25 00:20:51;;;;;;;1.80;1.17;;;12.30;74.70;;;;;;5083985;28;20554;-42
2021/01/25 00:23:17;;;;;;;1.15;1.02;;;12.30;74.80;;;;;;5084350;28;20028;-42
2021/01/25 00:25:43;;;;;;;1.45;1.17;;;12.30;75.00;;;;;;5083797;28;20021;-41
2021/01/25 00:28:09;;;;;;;1.25;0.95;;;12.30;75.20;;;;;;5084181;28;20059;-43
2021/01/25 00:30:35;;;;;;;1.23;0.98;;;12.30;74.80;;;;;;5083961;28;20032;-42
2021/01/25 00:33:02;;;;;;;1.40;1.10;;;12.30;74.80;;;;;;5083928;28;20036;-43
2021/01/25 00:35:28;;;;;;;1.17;0.90;;;12.30;75.70;;;;;;5084014;28;20022;-44
2021/01/25 00:37:54;;;;;;;1.40;1.02;;;12.30;75.10;;;;;;5083907;28;20032;-42
2021/01/25 00:40:20;;;;;;;1.30;1.20;;;12.30;75.20;;;;;;5085027;28;20024;-43
2021/01/25 00:42:46;;;;;;;1.10;1.00;;;12.30;75.20;;;;;;5091633;28;20025;-43
2021/01/25 00:45:13;;;;;;;1.58;1.05;;;12.30;75.30;;;;;;5083742;28;20031;-42
2021/01/25 00:47:39;;;;;;;1.80;1.13;;;12.30;75.40;;;;;;5083733;28;20029;-43
2021/01/25 00:50:06;;;;;;;1.65;0.95;;;12.30;75.00;;;;;;5083624;28;20059;-43
2021/01/25 00:52:32;;;;;;;1.25;0.98;;;12.30;75.00;;;;;;5083734;28;20032;-43
2021/01/25 00:54:59;;;;;;;1.50;1.10;;;12.30;75.00;;;;;;5082652;28;20047;-45
2021/01/25 00:57:25;;;;;;;2.42;1.52;;;12.30;75.20;;;;;;5083105;28;20062;-42
2021/01/25 00:59:51;;;;;;;1.77;1.15;;;12.30;75.20;;;;;;5083060;28;20135;-46
2021/01/25 01:02:17;;;;;;;1.05;0.80;;;12.30;75.10;;;;;;5083634;28;20025;-42
2021/01/25 01:04:44;;;;;;;1.25;0.88;;;12.30;75.20;;;;;;5083581;28;20108;-43
2021/01/25 01:07:10;;;;;;;1.25;1.15;;;12.30;75.50;;;;;;5085028;28;20048;-41
2021/01/25 01:09:36;;;;;;;1.13;1.00;;;12.30;75.30;;;;;;5084022;28;20843;-42
2021/01/25 01:12:02;;;;;;;2.10;1.17;;;12.30;76.10;;;;;;5083706;28;20036;-42
2021/01/25 01:14:28;;;;;;;1.63;1.20;;;12.30;75.50;;;;;;5083398;28;20052;-43
2021/01/25 01:16:55;;;;;;;1.00;0.90;;;12.30;75.00;;;;;;5083329;28;20707;-41
2021/01/25 01:19:21;;;;;;;2.60;1.02;;;12.30;75.10;;;;;;5083350;28;20043;-43
2021/01/25 01:21:47;;;;;;;1.77;1.20;;;12.30;75.30;;;;;;5083264;28;20047;-42
2021/01/25 01:24:15;;;;;;;1.45;1.20;;;12.30;75.10;;;;;;5083481;28;20043;-43
2021/01/25 01:26:42;;;;;;;1.77;1.27;;;12.30;75.30;;;;;;5085631;28;20024;-43
2021/01/25 01:29:08;;;;;;;2.13;1.38;;;12.30;75.40;;;;;;5083291;28;20043;-43
2021/01/25 01:31:34;;;;;;;1.40;1.13;;;12.30;75.40;;;;;;5083032;28;20017;-42
2021/01/25 01:34:00;;;;;;;1.10;1.00;;;12.30;75.50;;;;;;5083336;28;20039;-41
2021/01/25 01:36:26;;;;;;;2.00;1.20;;;12.30;75.40;;;;;;5083162;28;20021;-45
2021/01/25 01:38:52;;;;;;;1.42;1.10;;;12.30;75.50;;;;;;5083186;28;20043;-42
2021/01/25 01:41:18;;;;;;;2.17;1.20;;;12.30;75.60;;;;;;5083288;28;20021;-45
2021/01/25 01:43:45;;;;;;;1.58;1.00;;;12.30;75.70;;;;;;5083240;28;20585;-43
2021/01/25 01:46:14;;;;;;;2.28;1.20;;;12.30;75.60;;;;;;5083140;28;20028;-42
2021/01/25 01:48:40;;;;;;;1.23;1.08;;;12.30;75.70;;;;;;5098628;28;20042;-42
2021/01/25 01:51:06;;;;;;;2.30;1.10;;;12.30;75.70;;;;;;5081845;28;20040;-44
2021/01/25 01:53:32;;;;;;;1.98;1.08;;;12.30;75.70;;;;;;5081662;28;20021;-42
2021/01/25 01:55:59;;;;;;;1.63;1.25;;;12.30;75.70;;;;;;5082678;28;20032;-42
2021/01/25 01:58:27;;;;;;;1.20;1.10;;;12.30;75.70;;;;;;5079734;28;20059;-43
2021/01/25 02:00:53;;;;;;;1.48;1.00;;;12.30;75.80;;;;;;5061539;28;20029;-42
2021/01/25 02:03:19;;;;;;;1.77;1.15;;;12.30;75.90;;;;;;5062781;28;20049;-43
2021/01/25 02:05:45;;;;;;;1.50;1.10;;;12.30;75.90;;;;;;5063085;28;20033;-43
2021/01/25 02:08:12;;;;;;;1.95;1.08;;;12.30;75.90;;;;;;5065529;28;20704;-45
2021/01/25 02:10:38;;;;;;;1.17;1.00;;;12.30;75.90;;;;;;5071363;28;20050;-41
2021/01/25 02:13:05;;;;;;;1.60;1.10;;;12.30;75.90;;;;;;5085221;28;20071;-42
2021/01/25 02:15:31;;;;;;;1.52;1.10;;;12.30;75.90;;;;;;5102413;28;20017;-42
2021/01/25 02:17:57;;;;;;;1.55;1.05;;;12.30;75.80;;;;;;5084991;28;20044;-42
2021/01/25 02:20:27;;;;;;;1.90;1.20;;;12.30;75.80;;;;;;5086599;28;20028;-41
2021/01/25 02:23:12;;;;;;;1.67;1.13;;;12.30;75.80;;;;;;5086263;28;20025;-44
2021/01/25 02:25:59;;;;;;;1.10;0.90;;;12.30;75.70;;;;;;5086330;28;20029;-42
2021/01/25 02:28:25;;;;;;;1.30;1.08;;;12.30;75.70;;;;;;5086368;28;20088;-42
2021/01/25 02:30:52;;;;;;;1.20;0.98;;;12.30;75.70;;;;;;5102103;28;20025;-44
2021/01/25 02:33:18;;;;;;;2.97;1.17;;;12.30;75.70;;;;;;5084855;28;20032;-42
2021/01/25 02:35:44;;;;;;;1.52;1.20;;;12.30;75.70;;;;;;5085137;28;20096;-42
2021/01/25 02:38:11;;;;;;;1.90;1.23;;;12.30;75.60;;;;;;5101728;28;20035;-42
2021/01/25 02:40:37;;;;;;;2.10;1.23;;;12.30;75.60;;;;;;5105878;28;20024;-43
2021/01/25 02:43:03;;;;;;;1.00;0.90;;;12.30;75.50;;;;;;5090082;28;20484;-42
2021/01/25 02:45:29;;;;;;;1.73;1.15;;;12.20;75.40;;;;;;5101430;28;20059;-44
2021/01/25 02:47:56;;;;;;;1.63;1.38;;;12.20;75.30;;;;;;5084744;28;20390;-44
2021/01/25 02:50:22;;;;;;;1.63;1.05;;;12.20;75.30;;;;;;5101690;28;20020;-42
2021/01/25 02:52:48;;;;;;;2.22;1.20;;;12.20;75.40;;;;;;5085710;28;20040;-42
2021/01/25 02:55:14;;;;;;;1.33;1.08;;;12.20;75.40;;;;;;5085677;28;20036;-44
2021/01/25 02:57:40;;;;;;;1.50;1.10;;;12.30;75.50;;;;;;5085569;28;20056;-45
2021/01/25 03:00:08;;;;;;;2.10;1.30;;;12.20;75.50;;;;;;5084568;28;20029;-44
2021/01/25 03:02:34;;;;;;;2.00;1.30;;;12.30;75.50;;;;;;5085491;28;20085;-42
2021/01/25 03:05:00;;;;;;;1.85;1.20;;;12.20;75.40;;;;;;5084432;28;20035;-42
2021/01/25 03:07:27;;;;;;;2.88;1.15;;;12.20;75.40;;;;;;5087743;28;20073;-43
2021/01/25 03:09:53;;;;;;;1.95;0.93;;;12.20;75.30;;;;;;5086499;28;20024;-41
2021/01/25 03:12:20;;;;;;;1.90;1.40;;;12.20;75.30;;;;;;5075398;28;20037;-42
2021/01/25 03:14:46;;;;;;;1.95;1.05;;;12.20;75.40;;;;;;5097679;28;20021;-42
2021/01/25 03:17:12;;;;;;;2.28;1.20;;;12.20;75.30;;;;;;5063561;28;20063;-44
2021/01/25 03:19:39;;;;;;;1.33;1.08;;;12.20;75.40;;;;;;5096783;28;20033;-42
2021/01/25 03:22:05;;;;;;;1.85;1.10;;;12.20;75.40;;;;;;5065200;28;20032;-43
2021/01/25 03:24:31;;;;;;;1.60;1.20;;;12.20;75.30;;;;;;5065352;28;20025;-43
2021/01/25 03:26:57;;;;;;;1.65;1.20;;;12.20;75.30;;;;;;5065200;28;20046;-42
2021/01/25 03:29:23;;;;;;;1.38;1.08;;;12.20;75.30;;;;;;5065402;28;20035;-41
2021/01/25 03:31:49;;;;;;;1.92;1.50;;;12.20;75.30;;;;;;5065100;28;20098;-42
2021/01/25 03:34:16;;;;;;;1.75;1.10;;;12.20;75.30;;;;;;5076791;28;20032;-42
2021/01/25 03:36:42;;;;;;;2.17;1.42;;;12.20;75.30;;;;;;5085257;28;20028;-42
2021/01/25 03:39:08;;;;;;;1.55;1.30;;;12.20;75.30;;;;;;5085068;28;20755;-42
2021/01/25 03:41:34;;;;;;;1.52;1.40;;;12.20;75.40;;;;;;5082710;28;20028;-42
2021/01/25 03:44:00;;;;;;;1.40;1.20;;;12.20;75.30;;;;;;5064975;28;20033;-42
2021/01/25 03:46:27;;;;;;;1.35;1.25;;;12.20;75.30;;;;;;5097142;28;20032;-42
2021/01/25 03:48:53;;;;;;;1.50;1.13;;;12.20;75.30;;;;;;5064946;28;20409;-43
2021/01/25 03:51:20;;;;;;;1.52;1.30;;;12.20;75.30;;;;;;5075534;28;20028;-42
2021/01/25 03:53:47;;;;;;;2.00;0.98;;;12.20;75.30;;;;;;5084663;28;20029;-42
2021/01/25 03:56:13;;;;;;;2.00;1.33;;;12.20;75.30;;;;;;5084614;28;20033;-42
2021/01/25 03:58:43;;;;;;;2.08;1.10;;;12.20;75.40;;;;;;5084544;28;20045;-45
2021/01/25 04:01:09;;;;;;;1.75;1.10;;;12.20;75.30;;;;;;5084748;28;20758;-43
2021/01/25 04:03:35;;;;;;;1.48;1.08;;;12.20;75.30;;;;;;5084415;28;20032;-43
2021/01/25 04:06:01;;;;;;;2.10;1.20;;;12.20;75.30;;;;;;5084413;28;20080;-44
2021/01/25 04:08:27;;;;;;;1.85;1.27;;;12.20;75.30;;;;;;5084663;28;20029;-42
2021/01/25 04:10:54;;;;;;;3.08;1.50;;;12.20;75.30;;;;;;5086572;28;20031;-43
2021/01/25 04:13:20;;;;;;;1.40;1.23;;;12.20;75.40;;;;;;5087301;28;20032;-42
2021/01/25 04:15:46;;;;;;;1.73;1.17;;;12.20;75.40;;;;;;5084463;28;20078;-41
2021/01/25 04:18:12;;;;;;;2.03;1.40;;;12.20;75.40;;;;;;5084217;28;20447;-42
2021/01/25 04:20:38;;;;;;;1.77;1.40;;;12.20;75.50;;;;;;5084247;28;20021;-44
2021/01/25 04:23:04;;;;;;;2.70;1.20;;;12.20;75.60;;;;;;5084167;28;20107;-46
2021/01/25 04:25:30;;;;;;;1.60;1.35;;;12.20;75.70;;;;;;5084118;28;20032;-44
2021/01/25 04:27:57;;;;;;;1.70;1.20;;;12.20;75.80;;;;;;5083995;28;20111;-44
2021/01/25 04:30:24;;;;;;;2.10;1.30;;;12.20;75.70;;;;;;5083952;28;20035;-45
2021/01/25 04:32:50;;;;;;;1.30;1.20;;;12.20;75.80;;;;;;5083766;28;20469;-43
2021/01/25 04:35:17;;;;;;;1.50;1.20;;;12.20;75.80;;;;;;5083923;28;20038;-44
2021/01/25 04:37:43;;;;;;;1.98;1.23;;;12.20;75.80;;;;;;5083924;28;20036;-44
2021/01/25 04:40:10;;;;;;;1.40;1.13;;;12.20;75.90;;;;;;5083099;28;20025;-44
2021/01/25 04:42:36;;;;;;;1.85;1.13;;;12.20;75.70;;;;;;5079866;28;20024;-47
2021/01/25 04:45:07;;;;;;;1.17;1.05;;;12.20;75.80;;;;;;5083728;28;20029;-45
2021/01/25 04:47:34;;;;;;;2.10;1.42;;;12.20;75.80;;;;;;5083800;28;20028;-45
2021/01/25 04:50:00;;;;;;;1.88;1.02;;;12.20;75.70;;;;;;5083792;28;20388;-46
2021/01/25 04:52:27;;;;;;;1.63;1.35;;;12.10;75.60;;;;;;5083894;28;20037;-44
2021/01/25 04:54:53;;;;;;;1.55;1.08;;;12.10;75.80;;;;;;5099269;28;20078;-44
2021/01/25 04:57:19;;;;;;;1.75;1.30;;;12.10;75.60;;;;;;5082107;28;20059;-45
2021/01/25 04:59:46;;;;;;;2.40;1.25;;;12.20;75.70;;;;;;5082621;28;20123;-45
2021/01/25 05:02:15;;;;;;;2.30;1.10;;;12.10;75.70;;;;;;5083344;28;20050;-45
2021/01/25 05:04:41;;;;;;;1.38;1.15;;;12.20;75.60;;;;;;5083457;28;20055;-47
2021/01/25 05:07:08;;;;;;;2.00;1.27;;;12.10;75.60;;;;;;5082159;28;20024;-44
2021/01/25 05:09:34;;;;;;;2.25;1.17;;;12.10;75.60;;;;;;5082164;28;20037;-45
2021/01/25 05:12:02;;;;;;;1.50;0.97;;;12.10;75.70;;;;;;5089113;28;20546;-45
2021/01/25 05:14:41;;;;;;;1.83;1.17;;;12.10;75.60;;;;;;5063222;28;20017;-45
2021/01/25 05:17:11;;;;;;;1.55;1.30;;;12.10;75.60;;;;;;5063325;28;20029;-44
2021/01/25 05:19:37;;;;;;;2.55;1.30;;;12.10;75.50;;;;;;5095720;28;20054;-45
2021/01/25 05:22:25;;;;;;;1.77;1.15;;;12.10;75.60;;;;;;5103775;28;20032;-43
2021/01/25 05:24:55;;;;;;;2.88;1.15;;;12.10;75.60;;;;;;5102000;28;20032;-45
2021/01/25 05:27:31;;;;;;;1.50;1.23;;;12.10;75.60;;;;;;5103631;28;20030;-44
2021/01/25 05:30:08;;;;;;;1.75;1.27;;;12.10;75.50;;;;;;5103803;28;20441;-45
2021/01/25 05:32:53;;;;;;;2.97;1.20;;;12.10;75.50;;;;;;5085376;28;20357;-44
2021/01/25 05:35:24;;;;;;;2.47;1.38;;;12.10;75.70;;;;;;5101788;28;20468;-44
2021/01/25 05:37:52;;;;;;;2.08;1.10;;;12.10;75.70;;;;;;5103450;28;20028;-43
2021/01/25 05:40:21;;;;;;;4.00;1.23;;;12.10;75.70;;;;;;5101408;28;20055;-45
2021/01/25 05:42:47;;;;;;;1.27;1.13;;;12.10;75.70;;;;;;5093824;28;20056;-44
2021/01/25 05:45:13;;;;;;;1.77;1.15;;;12.10;75.70;;;;;;5101880;28;20031;-44
2021/01/25 05:47:46;;;;;;;2.43;1.17;;;12.10;75.70;;;;;;5107589;28;20031;-45
2021/01/25 05:50:27;;;;;;;1.38;1.05;;;12.10;75.70;;;;;;5107579;28;20073;-44
2021/01/25 05:52:53;;;;;;;1.98;1.10;;;12.10;75.50;;;;;;5107564;28;20044;-48
2021/01/25 05:55:20;;;;;;;1.73;1.10;;;12.10;75.80;;;;;;5106092;28;20774;-44
2021/01/25 05:57:47;;;;;;;3.15;1.27;;;12.10;75.80;;;;;;5083841;28;20052;-43
2021/01/25 06:00:13;;;;;;;2.03;1.40;;;12.10;75.70;;;;;;5087032;28;20035;-44
2021/01/25 06:02:47;;;;;;;2.53;1.42;;;12.10;75.70;;;;;;5086965;28;20032;-44
2021/01/25 06:05:32;;;;;;;3.17;1.33;;;12.10;75.60;;;;;;5086612;28;20024;-44
2021/01/25 06:08:16;;;;;;;2.17;1.27;;;12.10;75.70;;;;;;5086928;28;20032;-44
2021/01/25 06:11:06;;;;;;;1.67;1.10;;;12.10;75.60;;;;;;5087247;28;20025;-44
2021/01/25 06:14:03;;;;;;;1.35;1.23;;;12.00;75.70;;;;;;5066538;28;20029;-44
2021/01/25 06:16:29;;;;;;;2.33;1.30;;;12.10;75.90;;;;;;5083337;28;20036;-45
2021/01/25 06:19:01;;;;;;;2.53;1.25;;;12.00;76.10;;;;;;5085344;28;20070;-45
2021/01/25 06:21:32;;;;;;;1.45;1.10;;;12.10;75.90;;;;;;5086633;28;20048;-43
2021/01/25 06:24:01;;;;;;;2.33;1.25;;;12.10;75.80;;;;;;5086541;28;20119;-45
2021/01/25 06:26:30;;;;;;;1.20;1.05;;;12.00;75.80;;;;;;5084898;28;20033;-45
2021/01/25 06:29:02;;;;;;;1.23;1.13;;;12.00;75.80;;;;;;5068766;28;20048;-45
2021/01/25 06:31:28;;;;;;;1.58;1.30;;;12.10;75.90;;;;;;5086435;28;20084;-44
2021/01/25 06:33:54;;;;;;;1.92;1.30;;;12.10;75.90;;;;;;5086520;28;20016;-46
2021/01/25 06:36:21;;;;;;;3.05;1.23;;;12.10;76.00;;;;;;5084494;28;20037;-43
2021/01/25 06:38:50;;;;;;;2.72;1.30;;;12.10;76.10;;;;;;5086326;28;20751;-44
2021/01/25 06:41:17;;;;;;;1.30;1.15;;;12.00;76.00;;;;;;5085189;28;20024;-43
2021/01/25 06:43:48;;;;;;;2.28;1.20;;;12.00;76.00;;;;;;5065958;28;20040;-44
2021/01/25 06:46:21;;;;;;;2.95;1.40;;;12.00;76.00;;;;;;5080776;28;20029;-46
2021/01/25 06:48:48;;;;;;;1.52;1.10;;;12.00;76.30;;;;;;5098227;28;20033;-43
2021/01/25 06:51:16;;;;;;;1.92;1.35;;;12.00;76.20;;;;;;5097930;28;20024;-42
2021/01/25 06:53:42;;;;;;;2.88;1.55;;;12.00;76.20;;;;;;5066174;28;20025;-44
2021/01/25 06:56:08;;;;;;;1.60;1.10;;;12.00;76.10;;;;;;5065641;28;20025;-43
2021/01/25 06:58:36;;;;;;;1.40;1.30;;;12.00;76.00;;;;;;5065591;28;20059;-44
2021/01/25 07:01:08;;;;;;;2.17;1.40;;;12.00;75.80;;;;;;5079357;28;20024;-46
2021/01/25 07:03:56;;;;;;;1.30;1.10;;;12.00;76.10;;;;;;5085600;28;20091;-44
2021/01/25 07:06:44;;;;;;;1.48;1.30;;;12.00;76.10;;;;;;5085534;28;20020;-46
2021/01/25 07:09:10;;;;;;;1.02;0.85;;;12.00;76.10;;;;;;5086162;28;20033;-45
2021/01/25 07:11:37;;;;;;;1.30;1.08;;;12.00;76.10;;;;;;5102322;28;20040;-46
2021/01/25 07:14:03;;;;;;;1.65;1.30;;;12.00;76.10;;;;;;5085697;28;20052;-44
2021/01/25 07:16:29;;;;;;;1.50;1.15;;;12.00;76.00;;;;;;5086462;28;20024;-44
2021/01/25 07:18:55;;;;;;;3.03;1.23;;;12.00;76.00;;;;;;5085577;28;20032;-48
2021/01/25 07:21:22;;;;;;;1.25;1.15;;;12.00;75.90;;;;;;5085559;28;20065;-45
2021/01/25 07:23:49;;;;;;;2.80;1.40;;;12.00;75.80;;;;;;5084375;28;20036;-46
2021/01/25 07:26:16;;;;;;;1.55;1.40;;;12.00;76.00;;;;;;5085170;28;20024;-48
2021/01/25 07:28:43;;;;;;;1.85;1.40;;;12.00;76.10;;;;;;5085473;28;20431;-44
2021/01/25 07:31:10;;;;;;;3.05;1.70;;;12.00;76.00;;;;;;5084073;28;20033;-45
2021/01/25 07:33:37;;;;;;;2.83;1.77;;;12.00;75.90;;;;;;5085222;28;20485;-45
2021/01/25 07:36:03;;;;;;;2.13;1.52;;;11.90;75.90;;;;;;5085072;28;20033;-45
2021/01/25 07:38:29;;;;;;;2.15;1.42;;;11.90;75.70;;;;;;5087766;28;20050;-47
2021/01/25 07:40:59;;;;;;;1.85;1.30;;;11.90;75.70;;;;;;5085562;28;20493;-46
2021/01/25 07:43:30;;;;;;;2.10;1.38;;;12.00;75.70;;;;;;5067460;28;20029;-44
2021/01/25 07:46:11;;;;;;;2.00;1.52;;;11.90;75.60;;;;;;5084673;28;20485;-47
2021/01/25 07:48:53;;;;;;;2.08;1.60;;;12.00;75.70;;;;;;5084907;28;20059;-43
2021/01/25 07:51:23;;;;;;;1.65;1.20;;;12.00;75.70;;;;;;5085042;28;20084;-44
2021/01/25 07:53:49;;;;;;;1.98;1.50;;;11.90;75.90;;;;;;5084891;28;20473;-44
2021/01/25 07:56:17;;;;;;;2.20;1.55;;;12.00;75.70;;;;;;5084527;28;20032;-45
2021/01/25 07:58:44;;;;;;;1.92;1.35;;;11.90;75.60;;;;;;5084513;28;20048;-45
2021/01/25 08:01:15;;;;;;;1.75;1.45;;;11.90;75.80;;;;;;5084560;28;20032;-43
2021/01/25 08:03:42;;;;;;;1.90;1.50;;;11.90;75.90;;;;;;5082762;28;20036;-43
2021/01/25 08:06:08;;;;;;;1.80;1.55;;;11.90;76.00;;;;;;5066779;28;20040;-44
2021/01/25 08:08:34;;;;;;;2.50;1.67;;;11.90;75.80;;;;;;5083277;28;20040;-44
2021/01/25 08:11:01;;;;;;;1.52;1.42;;;11.90;75.70;;;;;;5083681;28;20024;-43
2021/01/25 08:13:29;;;;;;;1.65;1.52;;;11.90;75.90;;;;;;5082871;28;20032;-44
2021/01/25 08:16:11;;;;;;;2.30;1.50;;;11.90;75.80;;;;;;5083236;28;20037;-43
2021/01/25 08:18:55;;;;;;;2.17;1.58;;;11.90;75.60;;;;;;5100088;28;20037;-43
2021/01/25 08:21:24;;;;;;;2.03;1.30;;;11.90;75.40;;;;;;5084086;28;20033;-44
2021/01/25 08:23:50;;;;;;;1.95;1.50;;;11.90;75.60;;;;;;5084443;28;20024;-46
2021/01/25 08:26:26;;;;;;;1.60;1.50;;;11.90;76.00;;;;;;5082724;28;20025;-44
2021/01/25 08:29:01;;;;;;;2.40;1.88;;;11.90;75.60;;;;;;5083028;28;20021;-45
2021/01/25 08:31:31;;;;;;;2.58;1.75;;;11.90;75.40;;;;;;5082731;28;20674;-45
2021/01/25 08:34:02;;;;;;;2.10;1.70;;;11.90;75.10;;;;;;5084039;28;20029;-46
2021/01/25 08:36:35;;;;;;;1.75;1.63;;;11.90;75.40;;;;;;5082888;28;20103;-48
2021/01/25 08:39:34;;;;;;;2.03;1.63;;;11.90;75.70;;;;;;5084062;28;20059;-45
2021/01/25 08:42:01;;;;;;;2.20;1.58;;;11.90;75.40;;;;;;5078050;28;20024;-48
2021/01/25 08:44:27;;;;;;;2.15;1.63;;;11.90;75.60;;;;;;5062546;28;20025;-47
2021/01/25 08:46:53;;;;;;;2.53;1.60;;;11.90;75.70;;;;;;5063852;28;20045;-44
2021/01/25 08:49:33;;;;;;;2.97;1.90;;;11.90;75.80;;;;;;5062587;28;20024;-44
2021/01/25 08:52:01;;;;;;;2.45;1.77;;;11.90;75.60;;;;;;5082520;28;20021;-46
2021/01/25 08:54:32;;;;;;;1.70;1.50;;;11.90;76.00;;;;;;5083739;28;20046;-44
2021/01/25 08:56:58;;;;;;;2.22;1.75;;;11.90;76.10;;;;;;5083529;28;20028;-45
2021/01/25 08:59:33;;;;;;;1.58;1.48;;;11.90;75.80;;;;;;5083611;28;20083;-46
2021/01/25 09:02:09;;;;;;;2.72;1.83;;;11.80;75.60;;;;;;5083498;28;20039;-48
2021/01/25 09:04:35;;;;;;;2.58;1.60;;;11.80;75.70;;;;;;5083470;28;20764;-45
2021/01/25 09:07:01;;;;;;;1.70;1.50;;;11.80;75.60;;;;;;5083494;28;20020;-45
2021/01/25 09:09:27;;;;;;;1.90;1.55;;;11.90;75.50;;;;;;5083506;28;20021;-48
2021/01/25 09:11:54;;;;;;;2.03;1.60;;;11.80;75.80;;;;;;5083694;28;20028;-46
2021/01/25 09:14:21;;;;;;;1.77;1.63;;;11.80;75.60;;;;;;5083967;28;20028;-46
2021/01/25 09:16:47;;;;;;;1.90;1.70;;;11.80;76.00;;;;;;5084788;28;20067;-46
2021/01/25 09:19:15;;;;;;;1.85;1.63;;;11.80;75.90;;;;;;5092568;28;20059;-46
2021/01/25 09:21:41;;;;;;;3.90;1.95;;;11.80;76.00;;;;;;5103638;28;20031;-45
2021/01/25 09:24:08;;;;;;;2.27;1.43;;;11.80;75.90;;;;;;5103445;28;20396;-49
2021/01/25 09:26:34;;;;;;;2.70;2.00;;;11.80;76.40;;;;;;5103585;28;20016;-44
2021/01/25 09:29:00;;;;;;;1.55;1.30;;;11.80;76.20;;;;;;5103491;28;20040;-49
2021/01/25 09:31:28;;;;;;;3.20;1.50;;;11.80;76.20;;;;;;5103702;28;20049;-45
2021/01/25 09:33:55;;;;;;;3.15;1.98;;;11.80;76.30;;;;;;5103263;28;20032;-46
2021/01/25 09:36:21;;;;;;;1.65;1.50;;;11.80;76.10;;;;;;5103545;28;20084;-45
2021/01/25 09:38:48;;;;;;;2.22;1.70;;;11.80;76.30;;;;;;5103598;28;20044;-44
2021/01/25 09:41:15;;;;;;;1.98;1.52;;;11.80;76.40;;;;;;5098690;28;20020;-44
2021/01/25 09:43:41;;;;;;;2.55;1.67;;;11.80;76.40;;;;;;5083242;28;20017;-45
2021/01/25 09:46:07;;;;;;;3.73;1.80;;;11.80;76.60;;;;;;5083182;28;20051;-45
2021/01/25 09:48:34;;;;;;;2.67;1.70;;;11.80;76.10;;;;;;5083080;28;20032;-44
2021/01/25 09:51:00;;;;;;;2.03;1.52;;;11.80;76.10;;;;;;5083126;28;20016;-45
2021/01/25 09:53:26;;;;;;;2.60;1.60;;;11.80;76.00;;;;;;5082928;28;20141;-44
2021/01/25 09:55:55;;;;;;;3.25;1.85;;;11.80;76.30;;;;;;5083165;28;20024;-44
2021/01/25 09:58:22;;;;;;;1.92;1.52;;;11.80;76.50;;;;;;5082951;28;20033;-44
2021/01/25 10:00:49;;;;;;;2.58;1.70;;;11.80;76.20;;;;;;5083032;28;20029;-44
2021/01/25 10:03:16;;;;;;;2.45;1.80;;;11.80;76.20;;;;;;5082627;28;20036;-46
2021/01/25 10:05:42;;;;;;;2.35;1.60;;;11.80;76.20;;;;;;5083031;28;20036;-44
2021/01/25 10:08:09;;;;;;;1.98;1.63;;;11.80;76.00;;;;;;5083116;28;20029;-44
2021/01/25 10:10:35;;;;;;;2.25;1.77;;;11.80;76.30;;;;;;5083674;28;20037;-44
2021/01/25 10:13:02;;;;;;;2.00;1.60;;;11.80;76.00;;;;;;5082573;28;20027;-43
2021/01/25 10:15:28;;;;;;;2.63;2.07;;;11.80;76.20;;;;;;5082883;28;20070;-45
2021/01/25 10:17:54;;;;;;;1.77;1.60;;;11.70;76.70;;;;;;5083038;28;20036;-45
2021/01/25 10:20:20;;;;;;;2.15;1.80;;;11.70;76.40;;;;;;5082932;28;20063;-44
2021/01/25 10:22:46;;;;;;;2.15;1.80;;;11.70;76.30;;;;;;5083007;28;20055;-44
2021/01/25 10:25:13;;;;;;;1.95;1.60;;;11.70;76.70;;;;;;5082617;28;20029;-44
2021/01/25 10:27:39;;;;;;;2.63;1.85;;;11.70;76.30;;;;;;5084138;28;20031;-46
2021/01/25 10:30:07;;;;;;;2.00;1.73;;;11.70;76.30;;;;;;5086531;28;20029;-45
2021/01/25 10:32:36;;;;;;;2.92;1.98;;;11.70;76.30;;;;;;5085496;28;20048;-43
2021/01/25 10:35:03;;;;;;;2.20;1.60;;;11.70;76.20;;;;;;5086237;28;20323;-43
2021/01/25 10:37:29;;;;;;;2.13;1.50;;;11.70;76.30;;;;;;5085104;28;20029;-44
2021/01/25 10:39:56;;;;;;;1.65;1.50;;;11.70;76.10;;;;;;5086067;28;20033;-45
2021/01/25 10:42:23;;;;;;;4.00;2.10;;;11.70;76.30;;;;;;5082881;28;20493;-43
2021/01/25 10:44:49;;;;;;;3.08;2.00;;;11.70;76.40;;;;;;5072987;28;20043;-45
2021/01/25 10:47:18;;;;;;;2.35;1.80;;;11.70;76.90;;;;;;5085434;28;20055;-47
2021/01/25 10:49:48;;;;;;;2.25;1.58;;;11.70;76.50;;;;;;5078544;28;20058;-44
2021/01/25 10:52:15;;;;;;;2.22;1.67;;;11.70;76.50;;;;;;5078204;28;20039;-45
2021/01/25 10:54:41;;;;;;;2.40;1.80;;;11.70;76.20;;;;;;5075296;28;20526;-43
2021/01/25 10:57:07;;;;;;;2.33;2.10;;;11.70;76.20;;;;;;5077921;28;20028;-44
2021/01/25 10:59:34;;;;;;;2.75;2.03;;;11.70;76.00;;;;;;5084800;28;20109;-44
2021/01/25 11:02:00;;;;;;;1.90;1.70;;;11.70;76.20;;;;;;5072904;28;20520;-45
2021/01/25 11:04:26;;;;;;;1.98;1.55;;;11.70;76.10;;;;;;5076489;28;20044;-43
2021/01/25 11:06:53;;;;;;;3.17;1.92;;;11.70;76.10;;;;;;5073262;28;20029;-43
2021/01/25 11:09:19;;;;;;;3.70;1.52;;;11.70;76.10;;;;;;5078207;28;20016;-45
2021/01/25 11:11:45;;;;;;;1.88;1.60;;;11.60;76.10;;;;;;5082571;28;20088;-44
2021/01/25 11:14:11;;;;;;;1.92;1.65;;;11.70;76.30;;;;;;5085482;28;20021;-44
2021/01/25 11:16:38;;;;;;;2.58;2.28;;;11.70;76.40;;;;;;5085669;28;20028;-44
2021/01/25 11:19:04;;;;;;;2.30;1.80;;;11.70;76.40;;;;;;5092283;28;20075;-42
2021/01/25 11:21:30;;;;;;;2.03;1.73;;;11.70;76.30;;;;;;5085590;28;20040;-46
2021/01/25 11:23:56;;;;;;;1.98;1.52;;;11.60;76.10;;;;;;5085424;28;20033;-43
2021/01/25 11:26:25;;;;;;;2.42;1.98;;;11.60;76.10;;;;;;5085499;28;20050;-44
2021/01/25 11:28:51;;;;;;;1.92;1.73;;;11.60;76.30;;;;;;5085363;28;20035;-43
2021/01/25 11:31:17;;;;;;;2.38;2.00;;;11.60;76.10;;;;;;5085350;28;20028;-45
2021/01/25 11:33:44;;;;;;;3.25;1.63;;;11.60;76.00;;;;;;5080632;28;20444;-44
2021/01/25 11:36:10;;;;;;;2.50;1.88;;;11.60;76.20;;;;;;5065003;28;20029;-45
2021/01/25 11:38:36;;;;;;;2.38;1.90;;;11.60;76.10;;;;;;5064443;28;20041;-44
2021/01/25 11:41:03;;;;;;;2.58;1.83;;;11.60;76.60;;;;;;5081902;28;20016;-44
2021/01/25 11:43:29;;;;;;;1.88;1.77;;;11.60;76.40;;;;;;5105333;28;20061;-43
2021/01/25 11:45:55;;;;;;;3.10;1.80;;;11.60;76.40;;;;;;5105240;28;20036;-44
2021/01/25 11:48:22;;;;;;;1.90;1.70;;;11.60;76.40;;;;;;5105324;28;20473;-43
2021/01/25 11:50:48;;;;;;;1.97;1.70;;;11.60;76.90;;;;;;5103895;28;20016;-43
2021/01/25 11:53:15;;;;;;;2.35;1.80;;;11.60;76.20;;;;;;5085912;28;20024;-43
2021/01/25 11:55:41;;;;;;;2.13;1.83;;;11.60;76.20;;;;;;5084780;28;20048;-43
2021/01/25 11:58:10;;;;;;;2.97;2.05;;;11.60;76.10;;;;;;5084487;28;20048;-43
2021/01/25 12:00:36;;;;;;;1.95;1.70;;;11.60;76.30;;;;;;5084901;28;20071;-44
2021/01/25 12:03:03;;;;;;;2.72;1.77;;;11.60;76.40;;;;;;5084810;28;20044;-44
2021/01/25 12:05:29;;;;;;;2.55;1.92;;;11.60;76.30;;;;;;5084451;28;20060;-43
2021/01/25 12:07:57;;;;;;;1.90;1.70;;;11.60;76.30;;;;;;5084779;28;20028;-47
2021/01/25 12:10:23;;;;;;;2.17;1.70;;;11.60;76.30;;;;;;5085236;28;20021;-43
2021/01/25 12:12:49;;;;;;;1.95;1.75;;;11.60;76.20;;;;;;5084427;28;20422;-43
2021/01/25 12:15:16;;;;;;;2.33;1.92;;;11.60;77.30;;;;;;5084320;28;20029;-43
2021/01/25 12:17:42;;;;;;;1.92;1.80;;;11.60;76.50;;;;;;5084599;28;20047;-47
2021/01/25 12:20:09;;;;;;;2.13;1.63;;;11.50;76.40;;;;;;5084326;28;20055;-46
2021/01/25 12:22:35;;;;;;;1.95;1.70;;;11.60;76.50;;;;;;5084319;28;20055;-44
2021/01/25 12:25:01;;;;;;;2.58;2.17;;;11.60;76.40;;;;;;5084156;28;20020;-43
2021/01/25 12:27:27;;;;;;;2.55;1.88;;;11.60;76.40;;;;;;5084180;28;20493;-44
2021/01/25 12:29:53;;;;;;;2.40;1.95;;;11.50;76.40;;;;;;5084197;28;20075;-46
2021/01/25 12:32:19;;;;;;;2.00;1.80;;;11.50;76.30;;;;;;5084209;28;20028;-45
2021/01/25 12:34:46;;;;;;;2.80;1.90;;;11.50;76.50;;;;;;5083842;28;20052;-44
2021/01/25 12:37:12;;;;;;;2.47;2.00;;;11.50;76.40;;;;;;5084227;28;20029;-44
2021/01/25 12:39:38;;;;;;;2.65;2.15;;;11.50;76.50;;;;;;5084227;28;20151;-46
2021/01/25 12:42:04;;;;;;;2.50;2.05;;;11.50;76.50;;;;;;5091034;28;20053;-44
2021/01/25 12:44:30;;;;;;;2.55;1.75;;;11.50;76.50;;;;;;5104164;28;20523;-45
2021/01/25 12:46:57;;;;;;;2.00;1.67;;;11.50;76.40;;;;;;5104169;28;20059;-46
2021/01/25 12:49:23;;;;;;;2.65;1.90;;;11.50;76.40;;;;;;5104286;28;20081;-44
2021/01/25 12:51:50;;;;;;;2.17;1.95;;;11.50;76.40;;;;;;5089951;28;20035;-45